Time;durP1;ratioP1;P1;durP2;ratioP2;P2;SDS_P1;SDS_P2;PMS_P1;PMS_P2;Temp;Humidity;BMP_temperature;BMP_pressure;BME280_temperature;BME280_humidity;BME280_pressure;Samples;Min_cycle;Max_cycle;Signal;HPM_P1;HPM_P2
2022/03/21 00:01:16;;;;;;;19.97;8.43;;;3.30;90.20;;;;;;5040156;28;20556;-65
2022/03/21 00:03:42;;;;;;;15.40;7.47;;;3.30;89.80;;;;;;5027839;28;20182;-64
2022/03/21 00:06:08;;;;;;;15.83;8.03;;;3.40;89.70;;;;;;5036336;28;20460;-65
2022/03/21 00:08:34;;;;;;;15.70;8.07;;;3.40;89.20;;;;;;5035893;28;20428;-66
2022/03/21 00:11:00;;;;;;;20.37;9.33;;;3.50;88.70;;;;;;5034519;28;20456;-65
2022/03/21 00:13:26;;;;;;;19.20;7.30;;;3.50;88.80;;;;;;5036412;28;20182;-65
2022/03/21 00:15:53;;;;;;;14.90;7.67;;;3.50;89.30;;;;;;5042296;28;20420;-65
2022/03/21 00:18:20;;;;;;;19.10;7.97;;;3.40;90.10;;;;;;5039301;28;20561;-65
2022/03/21 00:20:50;;;;;;;13.30;7.17;;;3.30;90.20;;;;;;5036713;28;20455;-65
2022/03/21 00:23:17;;;;;;;18.83;7.20;;;3.20;90.20;;;;;;5035974;28;20913;-65
2022/03/21 00:25:43;;;;;;;17.97;7.40;;;3.20;90.50;;;;;;5034653;28;20443;-66
2022/03/21 00:28:09;;;;;;;17.60;7.20;;;3.10;90.70;;;;;;5039905;28;20912;-65
2022/03/21 00:30:36;;;;;;;17.90;8.30;;;3.20;90.70;;;;;;5035345;28;20832;-65
2022/03/21 00:33:02;;;;;;;20.17;7.40;;;3.20;90.50;;;;;;5040525;28;20566;-66
2022/03/21 00:35:29;;;;;;;15.57;7.17;;;3.10;90.40;;;;;;5032919;28;20562;-66
2022/03/21 00:37:55;;;;;;;17.93;7.43;;;3.10;90.50;;;;;;5022119;28;20790;-66
2022/03/21 00:40:20;;;;;;;18.20;7.77;;;3.10;90.60;;;;;;5026367;28;20455;-64
2022/03/21 00:42:47;;;;;;;18.90;7.97;;;3.00;90.60;;;;;;5036385;28;20182;-66
2022/03/21 00:45:16;;;;;;;16.43;7.83;;;2.90;90.80;;;;;;5034179;28;20653;-66
2022/03/21 00:47:42;;;;;;;19.80;7.60;;;2.90;90.60;;;;;;5032805;28;21014;-66
2022/03/21 00:50:10;;;;;;;24.73;9.30;;;2.90;90.60;;;;;;5033047;28;20457;-65
2022/03/21 00:52:54;;;;;;;15.27;7.47;;;2.90;90.50;;;;;;5028841;28;20897;-66
2022/03/21 00:55:22;;;;;;;13.90;7.40;;;2.90;90.60;;;;;;5028055;28;20437;-65
2022/03/21 00:57:48;;;;;;;16.57;7.67;;;2.80;90.70;;;;;;5033412;28;20436;-65
2022/03/21 01:00:17;;;;;;;22.20;6.43;;;2.80;90.70;;;;;;5030940;28;20826;-65
2022/03/21 01:02:43;;;;;;;13.83;6.97;;;2.70;90.70;;;;;;5034678;28;20441;-66
2022/03/21 01:05:10;;;;;;;18.97;7.47;;;2.70;90.80;;;;;;5029580;28;20437;-66
2022/03/21 01:07:36;;;;;;;18.93;6.57;;;2.70;91.00;;;;;;5036611;28;20465;-65
2022/03/21 01:10:04;;;;;;;18.20;7.33;;;2.60;91.00;;;;;;5041486;28;20458;-64
2022/03/21 01:12:30;;;;;;;20.20;7.40;;;2.70;91.10;;;;;;5035161;28;20444;-65
2022/03/21 01:14:56;;;;;;;13.50;5.87;;;2.60;90.90;;;;;;5011399;28;21072;-65
2022/03/21 01:17:22;;;;;;;15.63;6.23;;;2.60;91.00;;;;;;5038543;28;20531;-64
2022/03/21 01:19:48;;;;;;;13.37;5.67;;;2.60;90.70;;;;;;5037054;28;20464;-65
2022/03/21 01:22:13;;;;;;;14.30;6.27;;;2.60;90.80;;;;;;5026085;28;20209;-64
2022/03/21 01:24:39;;;;;;;12.90;6.40;;;2.60;91.10;;;;;;5038142;28;20325;-63
2022/03/21 01:27:06;;;;;;;15.60;6.90;;;2.60;91.00;;;;;;5040571;28;20300;-64
2022/03/21 01:29:32;;;;;;;16.93;5.87;;;2.60;90.90;;;;;;5029183;28;20486;-65
2022/03/21 01:31:58;;;;;;;10.87;6.30;;;2.60;90.80;;;;;;5024181;28;20977;-65
2022/03/21 01:34:23;;;;;;;14.57;6.60;;;2.50;90.90;;;;;;5041390;28;20468;-65
2022/03/21 01:36:49;;;;;;;18.67;6.53;;;2.50;90.70;;;;;;5040387;28;20221;-65
2022/03/21 01:39:15;;;;;;;16.20;6.53;;;2.50;90.90;;;;;;5039480;28;20281;-63
2022/03/21 01:41:41;;;;;;;15.83;5.30;;;2.50;90.90;;;;;;5035090;28;20892;-64
2022/03/21 01:44:09;;;;;;;11.43;6.60;;;2.50;90.80;;;;;;5038969;28;20190;-65
2022/03/21 01:46:36;;;;;;;14.63;5.60;;;2.50;91.00;;;;;;5026040;28;20206;-65
2022/03/21 01:49:04;;;;;;;15.77;7.13;;;2.50;90.90;;;;;;5038173;28;20978;-64
2022/03/21 01:51:30;;;;;;;18.73;7.13;;;2.50;90.90;;;;;;5042860;28;20519;-64
2022/03/21 01:56:42;;;;;;;11.60;5.90;;;2.50;90.70;;;;;;5042342;28;20845;-65
2022/03/21 01:59:09;;;;;;;13.43;6.70;;;2.50;90.90;;;;;;5040224;28;20456;-64
2022/03/21 02:01:35;;;;;;;14.53;6.70;;;2.40;90.90;;;;;;5036578;28;20451;-66
2022/03/21 02:04:01;;;;;;;24.00;6.53;;;2.30;90.90;;;;;;5030087;28;20437;-67
2022/03/21 02:06:28;;;;;;;17.40;7.60;;;2.00;91.30;;;;;;5037018;28;20955;-67
2022/03/21 02:09:14;;;;;;;13.07;6.57;;;1.90;91.40;;;;;;5037048;28;20189;-64
2022/03/21 02:11:40;;;;;;;17.37;6.80;;;2.00;91.70;;;;;;5035620;28;20894;-64
2022/03/21 02:14:07;;;;;;;13.43;5.30;;;2.00;91.50;;;;;;5031455;28;20514;-63
2022/03/21 02:16:35;;;;;;;14.80;6.40;;;2.00;91.50;;;;;;5034955;28;20433;-64
2022/03/21 02:19:16;;;;;;;17.87;8.03;;;2.00;91.80;;;;;;5028580;28;20544;-64
2022/03/21 02:22:17;;;;;;;17.17;7.10;;;2.00;91.70;;;;;;5016970;28;21070;-65
2022/03/21 02:24:44;;;;;;;16.80;6.20;;;2.00;91.80;;;;;;5031133;28;20436;-63
2022/03/21 02:27:11;;;;;;;15.63;7.00;;;2.00;91.80;;;;;;5043965;28;20647;-65
2022/03/21 02:29:38;;;;;;;17.40;7.73;;;2.00;91.60;;;;;;5022682;28;20452;-63
2022/03/21 02:32:06;;;;;;;17.00;7.83;;;1.90;91.60;;;;;;5035112;28;20433;-64
2022/03/21 02:34:36;;;;;;;13.90;7.10;;;1.80;91.70;;;;;;5032244;28;20471;-64
2022/03/21 02:37:03;;;;;;;26.03;8.30;;;1.90;92.30;;;;;;5041839;28;20523;-64
2022/03/21 02:39:30;;;;;;;15.27;7.13;;;2.00;92.20;;;;;;5030144;28;20496;-63
2022/03/21 02:41:56;;;;;;;19.60;8.30;;;2.00;92.10;;;;;;5038657;28;20495;-64
2022/03/21 02:44:22;;;;;;;14.87;6.70;;;2.00;92.30;;;;;;5036262;28;20519;-65
2022/03/21 02:46:49;;;;;;;20.30;8.40;;;2.10;92.10;;;;;;5044142;28;20475;-64
2022/03/21 02:49:15;;;;;;;18.93;7.60;;;2.10;92.10;;;;;;5039117;28;20444;-65
2022/03/21 02:51:42;;;;;;;19.57;8.13;;;2.10;92.40;;;;;;5043414;28;20531;-64
2022/03/21 02:54:09;;;;;;;15.90;7.80;;;2.10;92.20;;;;;;5017504;28;20988;-63
2022/03/21 02:56:35;;;;;;;15.07;7.33;;;2.00;92.50;;;;;;5039441;28;20424;-64
2022/03/21 02:59:01;;;;;;;12.20;6.40;;;2.10;92.80;;;;;;5022320;28;20460;-65
2022/03/21 03:01:27;;;;;;;14.97;5.83;;;2.10;92.40;;;;;;5034040;28;21815;-66
2022/03/21 03:03:53;;;;;;;18.53;7.40;;;2.20;92.30;;;;;;5033496;28;20488;-64
2022/03/21 03:06:19;;;;;;;14.47;6.90;;;2.20;92.40;;;;;;5032267;28;20225;-65
2022/03/21 03:08:45;;;;;;;13.00;7.00;;;2.20;92.30;;;;;;5038144;28;20188;-65
2022/03/21 03:11:11;;;;;;;15.50;7.37;;;2.20;92.20;;;;;;5040226;28;20495;-65
2022/03/21 03:13:37;;;;;;;12.80;6.00;;;2.20;92.30;;;;;;5038867;28;20555;-65
2022/03/21 03:16:04;;;;;;;13.47;6.47;;;2.20;92.10;;;;;;5040984;28;20934;-65
2022/03/21 03:18:30;;;;;;;13.37;5.90;;;2.20;92.20;;;;;;5042114;28;20432;-65
2022/03/21 03:20:57;;;;;;;18.63;8.23;;;2.30;92.00;;;;;;5041434;28;20443;-65
2022/03/21 03:23:24;;;;;;;14.20;6.73;;;2.20;92.10;;;;;;5043253;28;20189;-65
2022/03/21 03:26:01;;;;;;;15.60;7.50;;;2.20;92.60;;;;;;5029907;28;20433;-64
2022/03/21 03:28:27;;;;;;;14.50;6.93;;;2.30;92.80;;;;;;5034314;28;20421;-64
2022/03/21 03:30:54;;;;;;;14.03;7.10;;;2.30;92.70;;;;;;5036446;28;20444;-65
2022/03/21 03:33:20;;;;;;;8.93;5.17;;;2.30;92.30;;;;;;5041616;28;20831;-65
2022/03/21 03:35:47;;;;;;;16.60;5.67;;;2.30;92.30;;;;;;5030214;28;20484;-64
2022/03/21 03:38:12;;;;;;;15.43;6.27;;;2.30;92.30;;;;;;5039515;28;20504;-64
2022/03/21 03:40:38;;;;;;;15.63;6.40;;;2.30;92.40;;;;;;5035273;28;20956;-65
2022/03/21 03:43:03;;;;;;;14.00;6.47;;;2.40;92.60;;;;;;5033048;28;20193;-63
2022/03/21 03:45:29;;;;;;;13.80;5.67;;;2.40;92.50;;;;;;5028634;28;20186;-64
2022/03/21 03:47:55;;;;;;;18.60;8.13;;;2.40;92.50;;;;;;5033819;28;20209;-64
2022/03/21 03:50:20;;;;;;;12.40;5.87;;;2.30;92.50;;;;;;5037854;28;21029;-64
2022/03/21 03:52:47;;;;;;;19.97;6.73;;;2.30;92.60;;;;;;5045027;28;20215;-64
2022/03/21 03:55:14;;;;;;;13.17;5.70;;;2.20;92.60;;;;;;5036128;28;20278;-65
2022/03/21 03:57:40;;;;;;;19.13;7.73;;;2.20;92.80;;;;;;5044996;28;20432;-64
2022/03/21 04:00:08;;;;;;;13.57;6.60;;;2.20;93.40;;;;;;5036926;28;20475;-64
2022/03/21 04:03:44;;;;;;;12.63;7.03;;;2.10;92.60;;;;;;5037025;28;20822;-64
2022/03/21 04:05:21;;;;;;;11.23;5.23;;;2.00;92.80;;;;;;5029609;28;20592;-63
2022/03/21 04:07:50;;;;;;;14.40;7.40;;;1.90;93.10;;;;;;5033360;28;20465;-64
2022/03/21 04:10:16;;;;;;;15.10;6.87;;;1.90;93.50;;;;;;5031826;28;20457;-63
2022/03/21 04:12:46;;;;;;;15.40;6.20;;;1.90;93.50;;;;;;5033316;28;20428;-64
2022/03/21 04:15:12;;;;;;;16.30;7.20;;;1.90;93.60;;;;;;5027747;28;20433;-65
2022/03/21 04:17:37;;;;;;;17.17;7.77;;;1.90;93.40;;;;;;5039823;28;20462;-64
2022/03/21 04:20:04;;;;;;;13.97;7.10;;;1.80;93.50;;;;;;5033088;28;20252;-64
2022/03/21 04:22:29;;;;;;;15.17;6.17;;;1.80;93.60;;;;;;5031057;28;20240;-65
2022/03/21 04:24:55;;;;;;;20.40;7.93;;;1.80;93.60;;;;;;5012362;28;20432;-65
2022/03/21 04:27:21;;;;;;;18.77;7.77;;;1.70;93.80;;;;;;5038891;28;20205;-66
2022/03/21 04:29:46;;;;;;;19.23;7.50;;;1.60;93.90;;;;;;5034044;28;20359;-65
2022/03/21 04:32:12;;;;;;;13.90;7.80;;;1.60;94.10;;;;;;5029820;28;20186;-65
2022/03/21 04:34:38;;;;;;;15.73;6.63;;;1.70;94.20;;;;;;5033637;28;20196;-63
2022/03/21 04:37:04;;;;;;;24.33;6.63;;;1.60;94.10;;;;;;5035300;28;20239;-65
2022/03/21 04:39:30;;;;;;;11.30;5.90;;;1.50;94.20;;;;;;5033243;28;20210;-66
2022/03/21 04:41:55;;;;;;;16.87;6.70;;;1.50;94.30;;;;;;5016381;28;20436;-66
2022/03/21 04:44:21;;;;;;;16.20;6.23;;;1.50;94.60;;;;;;5031527;28;20193;-65
2022/03/21 04:46:47;;;;;;;16.73;7.33;;;1.40;94.80;;;;;;5035035;28;20224;-65
2022/03/21 04:49:13;;;;;;;16.67;6.90;;;1.40;94.60;;;;;;5036735;28;20226;-66
2022/03/21 04:51:38;;;;;;;16.50;7.47;;;1.40;95.00;;;;;;5038307;28;20766;-66
2022/03/21 04:54:04;;;;;;;16.77;8.00;;;1.40;94.90;;;;;;5019840;28;20504;-65
2022/03/21 04:56:29;;;;;;;16.03;8.17;;;1.40;94.90;;;;;;5038559;28;20253;-64
2022/03/21 04:58:55;;;;;;;16.30;6.63;;;1.50;94.90;;;;;;5037198;28;20803;-63
2022/03/21 05:01:21;;;;;;;16.03;7.20;;;1.50;94.70;;;;;;5034573;28;20624;-64
2022/03/21 05:03:47;;;;;;;28.20;8.87;;;1.50;94.80;;;;;;5037463;28;20201;-66
2022/03/21 05:06:14;;;;;;;20.93;7.40;;;1.50;94.60;;;;;;5029799;28;20261;-65
2022/03/21 05:08:40;;;;;;;16.60;7.00;;;1.50;94.80;;;;;;5033835;28;20933;-66
2022/03/21 05:11:05;;;;;;;15.83;8.27;;;1.40;94.50;;;;;;5042424;28;20534;-66
2022/03/21 05:13:31;;;;;;;14.57;6.70;;;1.40;94.70;;;;;;5035886;28;20201;-65
2022/03/21 05:15:57;;;;;;;19.53;7.50;;;1.40;94.80;;;;;;5041883;28;20705;-65
2022/03/21 05:18:23;;;;;;;20.87;8.30;;;1.40;94.70;;;;;;5036219;28;20930;-65
2022/03/21 05:20:48;;;;;;;15.17;6.70;;;1.30;94.70;;;;;;5039076;28;20817;-65
2022/03/21 05:31:27;;;;;;;19.70;7.77;;;1.10;95.60;;;;;;5033505;28;21260;-63
2022/03/21 05:36:36;;;;;;;25.27;9.30;;;1.10;95.70;;;;;;5038864;28;20193;-65
2022/03/21 05:39:03;;;;;;;16.73;7.03;;;1.10;95.80;;;;;;5037139;28;20455;-64
2022/03/21 05:41:29;;;;;;;24.70;8.77;;;1.20;95.70;;;;;;5032623;28;20634;-64
2022/03/21 05:43:55;;;;;;;18.07;7.30;;;1.10;95.80;;;;;;5022111;28;20435;-64
2022/03/21 05:46:22;;;;;;;15.40;7.00;;;1.10;96.10;;;;;;5039019;28;20212;-62
2022/03/21 05:49:00;;;;;;;18.93;8.10;;;1.10;95.80;;;;;;5044253;28;20475;-64
2022/03/21 05:51:37;;;;;;;13.97;6.70;;;1.10;95.90;;;;;;5038129;28;20953;-63
2022/03/21 05:54:06;;;;;;;16.17;7.53;;;1.20;96.00;;;;;;5039543;28;20444;-63
2022/03/21 05:56:32;;;;;;;17.17;7.80;;;1.20;96.10;;;;;;5044738;28;20420;-64
2022/03/21 06:01:43;;;;;;;15.90;7.60;;;1.20;95.90;;;;;;5032830;28;20514;-64
2022/03/21 06:04:08;;;;;;;23.80;7.93;;;1.20;96.20;;;;;;5038379;28;20436;-64
2022/03/21 06:06:34;;;;;;;14.67;6.90;;;1.30;96.10;;;;;;5031904;28;20319;-65
2022/03/21 06:09:00;;;;;;;13.93;7.60;;;1.30;96.10;;;;;;5042887;28;20672;-67
2022/03/21 06:11:26;;;;;;;18.50;7.97;;;1.30;96.00;;;;;;5034551;28;20189;-65
2022/03/21 06:13:52;;;;;;;23.40;7.43;;;1.40;96.20;;;;;;5032126;28;20266;-64
2022/03/21 06:16:17;;;;;;;19.77;8.20;;;1.40;96.20;;;;;;5034784;28;20511;-64
2022/03/21 06:18:45;;;;;;;14.73;8.20;;;1.50;96.10;;;;;;5031188;28;20210;-63
2022/03/21 06:21:12;;;;;;;16.83;7.10;;;1.60;96.20;;;;;;5038689;28;20245;-64
2022/03/21 06:23:39;;;;;;;15.13;7.20;;;1.70;96.10;;;;;;5017141;28;20429;-63
2022/03/21 06:26:07;;;;;;;25.50;9.07;;;1.70;96.10;;;;;;5031339;28;20480;-63
2022/03/21 06:28:33;;;;;;;21.00;8.83;;;1.70;95.90;;;;;;5018175;28;20429;-64
2022/03/21 06:30:59;;;;;;;18.90;8.70;;;1.70;95.90;;;;;;5036650;28;20453;-63
2022/03/21 06:33:27;;;;;;;27.73;10.03;;;1.70;95.80;;;;;;5034332;28;20440;-62
2022/03/21 06:35:54;;;;;;;22.70;9.40;;;1.80;95.90;;;;;;5027559;28;20533;-64
2022/03/21 06:38:20;;;;;;;18.87;8.77;;;1.90;95.70;;;;;;5037525;28;20507;-64
2022/03/21 06:40:46;;;;;;;22.73;9.47;;;2.00;95.70;;;;;;5031703;28;20528;-65
2022/03/21 06:43:14;;;;;;;25.60;10.00;;;2.10;95.50;;;;;;5035873;28;20433;-65
2022/03/21 06:45:39;;;;;;;27.60;10.90;;;2.20;95.50;;;;;;5019944;28;20510;-65
2022/03/21 06:48:05;;;;;;;28.70;9.30;;;2.30;94.90;;;;;;5035739;28;21016;-63
2022/03/21 06:50:31;;;;;;;13.87;7.40;;;2.40;94.50;;;;;;5030288;28;20712;-65
2022/03/21 06:52:57;;;;;;;25.57;10.13;;;2.50;94.40;;;;;;5032296;28;20237;-67
2022/03/21 06:55:23;;;;;;;19.90;8.47;;;2.70;94.30;;;;;;5028622;28;20577;-66
2022/03/21 06:57:49;;;;;;;16.67;8.13;;;2.80;94.30;;;;;;5027797;28;20441;-66
2022/03/21 07:00:14;;;;;;;20.77;8.20;;;2.90;94.30;;;;;;5027595;28;20225;-65
2022/03/21 07:02:41;;;;;;;24.50;9.20;;;3.20;94.00;;;;;;5031142;28;20232;-65
2022/03/21 07:05:07;;;;;;;17.97;8.30;;;3.40;93.90;;;;;;5028135;28;20909;-65
2022/03/21 07:07:34;;;;;;;17.30;8.07;;;3.50;93.70;;;;;;5026702;28;21031;-65
2022/03/21 07:10:00;;;;;;;18.13;8.07;;;3.60;93.60;;;;;;5031362;28;21245;-66
2022/03/21 07:12:26;;;;;;;21.07;8.90;;;3.80;93.40;;;;;;5030967;28;20503;-66
2022/03/21 07:14:54;;;;;;;24.50;8.63;;;4.00;93.20;;;;;;5030666;28;20491;-67
2022/03/21 07:17:20;;;;;;;23.33;8.50;;;4.30;92.90;;;;;;5031979;28;20189;-67
2022/03/21 07:19:46;;;;;;;17.07;7.80;;;4.60;92.20;;;;;;5031309;28;20465;-64
2022/03/21 07:22:12;;;;;;;17.87;9.23;;;4.80;92.00;;;;;;5041989;28;20423;-66
2022/03/21 07:24:38;;;;;;;18.47;7.70;;;5.20;91.90;;;;;;5031132;28;20425;-66
2022/03/21 07:27:05;;;;;;;17.17;7.60;;;5.50;91.40;;;;;;5038287;28;20491;-66
2022/03/21 07:29:31;;;;;;;20.90;8.27;;;5.90;90.90;;;;;;5037280;28;20459;-64
2022/03/21 07:31:57;;;;;;;14.13;7.33;;;6.50;91.00;;;;;;5032404;28;20441;-65
2022/03/21 07:34:23;;;;;;;23.03;8.70;;;7.10;88.70;;;;;;5037519;28;20621;-66
2022/03/21 07:36:50;;;;;;;21.03;9.53;;;7.70;84.80;;;;;;5020902;28;20805;-67
2022/03/21 07:39:17;;;;;;;16.90;6.90;;;8.20;82.60;;;;;;5048306;28;20460;-67
2022/03/21 07:41:43;;;;;;;21.60;7.40;;;8.60;81.60;;;;;;5049019;28;20453;-65
2022/03/21 07:44:09;;;;;;;20.93;8.30;;;8.90;80.40;;;;;;5044397;28;20429;-67
2022/03/21 07:49:19;;;;;;;18.40;8.60;;;9.50;79.40;;;;;;5042710;28;20479;-67
2022/03/21 07:51:45;;;;;;;15.97;7.77;;;10.00;74.40;;;;;;5046657;28;20421;-68
2022/03/21 07:54:12;;;;;;;18.40;7.50;;;10.60;73.20;;;;;;5057175;28;20212;-67
2022/03/21 07:56:38;;;;;;;14.73;6.30;;;11.00;71.80;;;;;;5059293;28;20186;-66
2022/03/21 07:59:04;;;;;;;16.87;8.20;;;11.50;70.90;;;;;;5060313;28;20452;-65
2022/03/21 08:01:30;;;;;;;15.60;7.60;;;11.80;69.90;;;;;;5055742;28;20500;-67
2022/03/21 08:04:00;;;;;;;19.43;8.40;;;12.20;68.90;;;;;;5047248;28;20449;-65
2022/03/21 08:06:26;;;;;;;15.97;8.03;;;12.80;67.40;;;;;;5029793;28;20288;-65
2022/03/21 08:08:54;;;;;;;17.00;7.57;;;12.90;66.10;;;;;;5025716;28;20433;-65
2022/03/21 08:11:21;;;;;;;12.47;7.73;;;13.10;65.20;;;;;;5024812;28;20396;-65
2022/03/21 08:13:49;;;;;;;26.10;7.13;;;13.20;64.70;;;;;;5026531;28;20444;-65
2022/03/21 08:16:19;;;;;;;20.50;8.50;;;12.90;65.30;;;;;;5021925;28;20943;-66
2022/03/21 08:18:48;;;;;;;17.60;8.50;;;12.90;65.20;;;;;;5027393;28;20429;-65
2022/03/21 08:21:13;;;;;;;17.77;8.47;;;13.60;63.20;;;;;;5021231;28;20429;-65
2022/03/21 08:23:39;;;;;;;14.50;7.57;;;13.80;63.10;;;;;;5024600;28;20812;-65
2022/03/21 08:26:04;;;;;;;16.37;7.50;;;13.90;62.50;;;;;;5031268;28;20320;-65
2022/03/21 08:28:30;;;;;;;18.83;7.37;;;13.90;63.20;;;;;;5026684;28;20688;-65
2022/03/21 08:30:56;;;;;;;16.17;7.27;;;14.40;60.90;;;;;;5037630;28;20257;-64
2022/03/21 08:33:21;;;;;;;19.70;7.10;;;14.20;62.40;;;;;;5033064;28;20178;-64
2022/03/21 08:35:47;;;;;;;12.63;6.90;;;14.60;60.30;;;;;;5033529;28;20182;-65
2022/03/21 08:38:13;;;;;;;15.57;7.17;;;14.90;59.40;;;;;;5031173;28;20623;-65
2022/03/21 08:40:39;;;;;;;15.30;7.50;;;14.60;60.90;;;;;;5027182;28;20218;-66
2022/03/21 08:43:05;;;;;;;14.00;7.00;;;14.70;59.90;;;;;;5030790;28;20440;-65
2022/03/21 08:45:31;;;;;;;13.27;7.60;;;14.80;60.40;;;;;;5033488;28;20190;-66
2022/03/21 08:47:57;;;;;;;12.60;7.70;;;15.20;58.50;;;;;;5031382;28;20456;-67
2022/03/21 08:50:22;;;;;;;13.63;7.30;;;15.00;58.90;;;;;;5032855;28;20747;-67
2022/03/21 08:52:48;;;;;;;13.30;6.10;;;15.10;58.60;;;;;;5032936;28;20181;-66
2022/03/21 08:55:14;;;;;;;14.63;7.23;;;15.00;58.00;;;;;;5013544;28;20193;-67
2022/03/21 08:57:40;;;;;;;19.50;7.30;;;14.90;58.90;;;;;;5034673;28;20178;-67
2022/03/21 09:00:07;;;;;;;18.93;7.73;;;14.80;59.00;;;;;;5017699;28;20611;-66
2022/03/21 09:02:33;;;;;;;18.30;7.70;;;14.90;59.40;;;;;;5015308;28;20191;-66
2022/03/21 09:04:59;;;;;;;15.13;7.60;;;15.10;57.40;;;;;;5032424;28;20433;-66
2022/03/21 09:07:25;;;;;;;16.77;7.53;;;15.20;57.90;;;;;;5026563;28;20535;-66
2022/03/21 09:09:51;;;;;;;16.13;7.83;;;15.40;56.10;;;;;;5032863;28;20213;-65
2022/03/21 09:12:17;;;;;;;17.17;7.63;;;15.30;56.70;;;;;;5032327;28;20443;-66
2022/03/21 09:14:42;;;;;;;18.07;6.67;;;15.20;57.20;;;;;;5040768;28;20778;-66
2022/03/21 09:17:08;;;;;;;14.33;7.00;;;15.30;55.80;;;;;;5014384;28;20217;-66
2022/03/21 09:19:34;;;;;;;17.03;7.83;;;15.20;56.50;;;;;;5042174;28;20823;-66
2022/03/21 09:22:01;;;;;;;18.10;8.90;;;15.00;57.50;;;;;;5033525;28;20971;-66
2022/03/21 09:24:27;;;;;;;19.90;9.00;;;14.90;57.10;;;;;;5033237;28;20198;-66
2022/03/21 09:26:53;;;;;;;16.27;7.77;;;14.80;58.30;;;;;;5036262;28;20469;-66
2022/03/21 09:29:19;;;;;;;17.07;8.23;;;14.60;59.30;;;;;;5021480;28;20624;-65
2022/03/21 09:31:44;;;;;;;13.60;7.20;;;14.70;57.70;;;;;;5034573;28;21151;-65
2022/03/21 09:34:12;;;;;;;18.90;9.00;;;14.30;59.60;;;;;;5031727;28;20210;-66
2022/03/21 09:36:38;;;;;;;19.97;8.67;;;14.50;60.40;;;;;;5034518;28;20201;-66
2022/03/21 09:39:06;;;;;;;22.30;9.07;;;14.80;57.50;;;;;;5028102;28;20458;-65
2022/03/21 09:41:32;;;;;;;19.43;8.07;;;15.20;55.70;;;;;;5031857;28;20439;-66
2022/03/21 09:44:03;;;;;;;19.63;8.07;;;14.60;58.40;;;;;;5034534;28;20412;-65
2022/03/21 09:46:30;;;;;;;17.37;8.07;;;14.70;57.90;;;;;;5023464;28;20198;-65
2022/03/21 09:48:57;;;;;;;15.97;7.63;;;14.40;58.50;;;;;;5028452;28;20523;-63
2022/03/21 09:51:24;;;;;;;14.77;7.07;;;13.60;60.30;;;;;;5020888;28;20429;-65
2022/03/21 09:53:50;;;;;;;19.60;7.80;;;13.80;61.30;;;;;;5028310;28;21046;-65
2022/03/21 09:56:17;;;;;;;19.47;6.80;;;13.90;60.20;;;;;;5030983;28;20483;-65
2022/03/21 09:58:43;;;;;;;16.13;7.23;;;13.90;60.40;;;;;;5034733;28;20200;-65
2022/03/21 10:01:12;;;;;;;17.70;7.37;;;13.80;60.60;;;;;;5024576;28;20938;-65
2022/03/21 10:03:42;;;;;;;21.70;9.03;;;13.90;61.40;;;;;;5033951;28;20440;-67
2022/03/21 10:06:29;;;;;;;19.20;8.40;;;14.10;60.70;;;;;;5032671;28;20452;-64
2022/03/21 10:09:10;;;;;;;18.90;7.57;;;14.30;60.20;;;;;;5024568;28;20438;-64
2022/03/21 10:11:36;;;;;;;15.57;7.20;;;14.20;61.50;;;;;;5024869;28;20432;-65
2022/03/21 10:14:23;;;;;;;22.17;7.93;;;14.10;61.50;;;;;;5032683;28;20910;-65
2022/03/21 10:16:58;;;;;;;17.77;7.30;;;14.40;60.90;;;;;;5037840;28;20466;-65
2022/03/21 10:19:24;;;;;;;15.47;7.83;;;14.50;61.30;;;;;;5023201;28;20471;-65
2022/03/21 10:22:11;;;;;;;19.80;8.23;;;14.40;61.50;;;;;;5027004;28;20420;-64
2022/03/21 10:24:40;;;;;;;16.77;6.67;;;14.60;60.40;;;;;;5003185;28;20815;-65
2022/03/21 10:27:06;;;;;;;17.70;6.60;;;14.60;60.30;;;;;;5031345;28;20453;-64
2022/03/21 10:29:48;;;;;;;16.20;6.97;;;14.60;61.30;;;;;;5020527;28;20472;-66
2022/03/21 10:32:30;;;;;;;17.20;6.70;;;14.60;61.70;;;;;;5031079;28;20840;-64
2022/03/21 10:35:09;;;;;;;18.87;6.80;;;14.50;60.60;;;;;;5027151;28;20430;-66
2022/03/21 10:37:49;;;;;;;15.77;7.23;;;14.60;61.30;;;;;;5035612;28;20474;-68
2022/03/21 10:40:27;;;;;;;10.60;5.57;;;14.40;61.00;;;;;;5029127;28;21083;-68
2022/03/21 10:43:10;;;;;;;18.23;6.10;;;14.40;62.90;;;;;;5032430;28;20487;-68
2022/03/21 10:45:38;;;;;;;14.97;7.60;;;14.30;63.70;;;;;;5033955;28;20471;-65
2022/03/21 10:48:06;;;;;;;13.77;6.53;;;14.30;63.90;;;;;;5032097;28;20505;-63
2022/03/21 10:50:37;;;;;;;20.83;7.67;;;14.30;62.70;;;;;;5038186;28;20460;-66
2022/03/21 10:53:15;;;;;;;19.80;7.50;;;14.40;62.40;;;;;;5027896;28;20433;-65
2022/03/21 10:55:43;;;;;;;12.10;7.20;;;14.50;61.60;;;;;;5026942;28;20443;-65
2022/03/21 10:58:10;;;;;;;15.13;6.70;;;14.60;62.80;;;;;;5026743;28;20520;-65
2022/03/21 11:00:36;;;;;;;16.13;7.63;;;14.90;61.90;;;;;;5027086;28;20481;-65
2022/03/21 11:03:06;;;;;;;17.83;7.40;;;15.10;61.50;;;;;;5028874;28;20440;-65
2022/03/21 11:05:50;;;;;;;20.67;7.07;;;15.30;61.20;;;;;;5035165;28;20442;-66
2022/03/21 11:08:17;;;;;;;23.77;7.77;;;15.40;60.70;;;;;;5023111;28;20535;-64
2022/03/21 11:10:44;;;;;;;15.50;6.93;;;15.50;60.40;;;;;;5033690;28;20782;-65
2022/03/21 11:13:11;;;;;;;15.60;8.00;;;15.60;59.80;;;;;;5034617;28;20932;-66
2022/03/21 11:15:38;;;;;;;15.30;6.60;;;15.80;58.30;;;;;;5035287;28;20483;-65
2022/03/21 11:18:05;;;;;;;14.33;8.10;;;15.80;58.00;;;;;;5026935;28;20425;-66
2022/03/21 11:20:31;;;;;;;17.83;8.40;;;15.70;57.30;;;;;;5029923;28;20461;-67
2022/03/21 11:22:58;;;;;;;14.70;6.80;;;15.90;57.50;;;;;;5030906;28;20449;-68
2022/03/21 11:25:29;;;;;;;12.63;5.93;;;16.10;58.30;;;;;;5026694;28;20516;-67
2022/03/21 11:28:13;;;;;;;18.10;7.57;;;15.90;57.50;;;;;;5032332;28;20519;-66
2022/03/21 11:31:02;;;;;;;18.80;6.40;;;15.90;56.80;;;;;;5031535;28;20460;-65
2022/03/21 11:33:41;;;;;;;23.77;7.03;;;16.00;57.50;;;;;;5033202;28;20478;-66
2022/03/21 11:36:13;;;;;;;24.30;7.87;;;16.30;56.40;;;;;;5026316;28;20549;-63
2022/03/21 11:38:47;;;;;;;14.50;7.17;;;16.10;56.80;;;;;;5026565;28;20430;-66
2022/03/21 11:41:21;;;;;;;17.57;6.20;;;15.90;56.70;;;;;;5026272;28;20822;-67
2022/03/21 11:44:08;;;;;;;14.13;5.87;;;16.00;57.10;;;;;;5036033;28;21092;-68
2022/03/21 11:46:36;;;;;;;16.80;8.40;;;15.80;57.00;;;;;;5033475;28;20464;-67
2022/03/21 11:49:04;;;;;;;17.83;7.00;;;15.80;56.80;;;;;;5040021;28;20459;-68
2022/03/21 11:51:38;;;;;;;12.07;5.97;;;15.80;55.90;;;;;;5038013;28;20435;-67
2022/03/21 11:54:06;;;;;;;14.03;6.73;;;15.70;55.80;;;;;;5042050;28;20546;-67
2022/03/21 11:56:41;;;;;;;17.10;7.00;;;15.60;56.60;;;;;;5032300;28;20911;-66
2022/03/21 11:59:08;;;;;;;15.57;6.97;;;15.60;56.50;;;;;;5030798;28;20456;-66
2022/03/21 12:01:35;;;;;;;18.03;7.77;;;15.60;56.90;;;;;;5035219;28;21262;-67
2022/03/21 12:04:26;;;;;;;21.00;7.77;;;15.60;58.00;;;;;;5036030;28;20460;-67
2022/03/21 12:06:59;;;;;;;13.67;6.23;;;15.30;57.20;;;;;;5025938;28;20456;-67
2022/03/21 12:09:47;;;;;;;15.03;7.53;;;15.50;58.00;;;;;;5029094;28;20552;-66
2022/03/21 12:12:15;;;;;;;17.97;6.20;;;15.70;57.70;;;;;;5015349;28;20460;-67
2022/03/21 12:14:54;;;;;;;16.10;6.77;;;16.00;57.60;;;;;;5014047;28;20439;-67
2022/03/21 12:17:23;;;;;;;17.57;7.37;;;16.00;57.40;;;;;;5045768;28;20428;-66
2022/03/21 12:19:57;;;;;;;22.17;8.10;;;16.10;58.60;;;;;;5043497;28;20440;-67
2022/03/21 12:22:37;;;;;;;16.93;7.70;;;16.30;57.10;;;;;;5037449;28;20420;-65
2022/03/21 12:25:13;;;;;;;23.57;7.00;;;16.60;56.20;;;;;;5041217;28;20994;-67
2022/03/21 12:27:51;;;;;;;18.63;7.83;;;16.70;55.40;;;;;;5042031;28;20459;-66
2022/03/21 12:30:30;;;;;;;14.40;7.70;;;16.70;56.40;;;;;;5036919;28;20458;-67
2022/03/21 12:33:23;;;;;;;11.57;6.97;;;16.60;55.50;;;;;;5042167;28;20813;-66
2022/03/21 12:35:49;;;;;;;17.00;7.20;;;16.70;55.30;;;;;;5042305;28;20423;-67
2022/03/21 12:38:26;;;;;;;21.03;6.67;;;16.50;55.30;;;;;;5039249;28;20417;-65
2022/03/21 12:40:58;;;;;;;21.43;6.70;;;16.50;56.10;;;;;;5035971;28;20205;-66
2022/03/21 12:43:48;;;;;;;18.43;7.40;;;16.60;54.10;;;;;;5039606;28;20514;-67
2022/03/21 12:46:18;;;;;;;22.80;8.20;;;16.90;54.30;;;;;;5038148;28;20421;-67
2022/03/21 12:48:45;;;;;;;19.23;7.27;;;16.80;53.70;;;;;;5038719;28;20474;-67
2022/03/21 12:51:13;;;;;;;15.57;7.70;;;17.10;51.40;;;;;;5027548;28;20508;-67
2022/03/21 12:53:50;;;;;;;19.27;8.00;;;17.00;51.30;;;;;;5040405;28;20412;-67
2022/03/21 12:56:18;;;;;;;19.13;6.80;;;17.00;53.20;;;;;;5035532;28;20424;-69
2022/03/21 12:58:46;;;;;;;17.20;7.30;;;16.60;53.10;;;;;;5038911;28;20425;-68
2022/03/21 13:01:13;;;;;;;23.93;8.43;;;16.70;53.00;;;;;;5034773;28;20467;-67
2022/03/21 13:03:40;;;;;;;22.73;8.20;;;16.80;53.80;;;;;;5039204;28;20506;-67
2022/03/21 13:11:33;;;;;;;14.80;7.37;;;17.00;51.80;;;;;;5042305;28;20416;-64
2022/03/21 13:14:06;;;;;;;22.73;8.50;;;16.90;51.40;;;;;;5039177;28;20534;-66